SWR99E EIDW-LSZH
Flight info
| Callsign | SWR99E |
|---|---|
| Flight time | 2h 3m |
| Altitude | 33000 |
| Route | ENDEQ1E ENDEQ Q36 EPOXI L15 PIXUP/N0444F350 L15 FINMA DCT CHT DCT ITVIP DCT KONAN UL607 KOK DCT CIV DCT SUTAL DCT GTQ DCT BAMEV DCT BLM |
| Aircraft | A320/M-SDE3FGHIRWY/LB1 |
Departure
| Time | 2026-05-04 10:34 |
|---|---|
| Airport | Dublin Airport (EIDW) |
Arrival
| Time | 2026-05-04 12:37 |
|---|---|
| Airport | Zürich Airport (LSZH) |
| Time | Latitude | Longitude | Altitude | Speed | Heading |
|---|---|---|---|---|---|
| 2026-05-04 10:10 | 53.42835 | -6.24860 | 211 ft | 0 kts | 133° |
| 2026-05-04 10:21 | 53.42837 | -6.24864 | 211 ft | 2 kts | 133° |
| 2026-05-04 10:21 | 53.42849 | -6.24884 | 213 ft | 2 kts | 136° |
| 2026-05-04 10:21 | 53.42857 | -6.24897 | 211 ft | 2 kts | 136° |
| 2026-05-04 10:22 | 53.42884 | -6.24927 | 216 ft | 2 kts | 211° |
| 2026-05-04 10:22 | 53.42893 | -6.24916 | 211 ft | 1 kts | 229° |
| 2026-05-04 10:22 | 53.42893 | -6.24915 | 211 ft | 0 kts | 229° |
| 2026-05-04 10:26 | 53.42893 | -6.24916 | 211 ft | 1 kts | 229° |
| 2026-05-04 10:27 | 53.42879 | -6.24942 | 217 ft | 3 kts | 228° |
| 2026-05-04 10:27 | 53.42860 | -6.24976 | 211 ft | 11 kts | 227° |
| 2026-05-04 10:27 | 53.42798 | -6.25074 | 211 ft | 11 kts | 237° |
| 2026-05-04 10:27 | 53.42795 | -6.25192 | 211 ft | 9 kts | 272° |
| 2026-05-04 10:28 | 53.42779 | -6.25280 | 214 ft | 7 kts | 227° |
| 2026-05-04 10:28 | 53.42748 | -6.25332 | 215 ft | 6 kts | 225° |
| 2026-05-04 10:28 | 53.42695 | -6.25423 | 218 ft | 13 kts | 225° |
| 2026-05-04 10:28 | 53.42629 | -6.25533 | 211 ft | 16 kts | 226° |
| 2026-05-04 10:29 | 53.42528 | -6.25707 | 211 ft | 21 kts | 226° |
| 2026-05-04 10:29 | 53.42432 | -6.25871 | 212 ft | 19 kts | 225° |
| 2026-05-04 10:29 | 53.42347 | -6.26017 | 211 ft | 16 kts | 225° |
| 2026-05-04 10:29 | 53.42279 | -6.26168 | 214 ft | 18 kts | 245° |
| 2026-05-04 10:30 | 53.42270 | -6.26377 | 211 ft | 18 kts | 274° |
| 2026-05-04 10:30 | 53.42282 | -6.26588 | 214 ft | 18 kts | 276° |
| 2026-05-04 10:30 | 53.42294 | -6.26799 | 215 ft | 18 kts | 275° |
| 2026-05-04 10:30 | 53.42306 | -6.27018 | 214 ft | 19 kts | 275° |
| 2026-05-04 10:31 | 53.42318 | -6.27245 | 211 ft | 20 kts | 275° |
| 2026-05-04 10:31 | 53.42331 | -6.27486 | 211 ft | 21 kts | 275° |
| 2026-05-04 10:32 | 53.42196 | -6.28157 | 212 ft | 12 kts | 105° |
| 2026-05-04 10:33 | 53.42192 | -6.28075 | 219 ft | 8 kts | 93° |
| 2026-05-04 10:33 | 53.42169 | -6.27711 | 210 ft | 68 kts | 95° |
| 2026-05-04 10:33 | 53.42112 | -6.26504 | 212 ft | 132 kts | 96° |
| 2026-05-04 10:33 | 53.42011 | -6.24697 | 393 ft | 161 kts | 92° |
| 2026-05-04 10:34 | 53.41896 | -6.22909 | 1206 ft | 148 kts | 91° |
| 2026-05-04 10:34 | 53.41784 | -6.21212 | 1626 ft | 156 kts | 91° |
| 2026-05-04 10:34 | 53.41684 | -6.19270 | 1712 ft | 184 kts | 90° |
| 2026-05-04 10:34 | 53.41571 | -6.16994 | 1915 ft | 208 kts | 91° |
| 2026-05-04 10:35 | 53.41441 | -6.14428 | 2199 ft | 232 kts | 92° |
| 2026-05-04 10:35 | 53.41292 | -6.11618 | 2705 ft | 248 kts | 93° |
| 2026-05-04 10:35 | 53.41131 | -6.08696 | 3485 ft | 254 kts | 92° |
| 2026-05-04 10:35 | 53.40964 | -6.05723 | 4290 ft | 258 kts | 91° |
| 2026-05-04 10:36 | 53.40936 | -6.02716 | 5102 ft | 260 kts | 85° |
| 2026-05-04 10:36 | 53.41099 | -5.99674 | 5892 ft | 263 kts | 82° |
| 2026-05-04 10:36 | 53.41334 | -5.96618 | 6600 ft | 268 kts | 80° |
| 2026-05-04 10:36 | 53.41593 | -5.93451 | 7372 ft | 272 kts | 81° |
| 2026-05-04 10:37 | 53.41841 | -5.90288 | 8102 ft | 276 kts | 82° |
| 2026-05-04 10:37 | 53.42079 | -5.87067 | 8853 ft | 279 kts | 82° |
| 2026-05-04 10:37 | 53.42308 | -5.83803 | 9597 ft | 283 kts | 82° |
| 2026-05-04 10:37 | 53.42532 | -5.80493 | 10275 ft | 289 kts | 82° |
| 2026-05-04 10:39 | 53.44064 | -5.57581 | 13265 ft | 347 kts | 82° |
| 2026-05-04 10:39 | 53.44333 | -5.53531 | 13936 ft | 350 kts | 82° |
| 2026-05-04 10:39 | 53.44540 | -5.49440 | 14519 ft | 354 kts | 88° |
| 2026-05-04 10:40 | 53.44459 | -5.45277 | 15047 ft | 359 kts | 91° |
| 2026-05-04 10:40 | 53.44353 | -5.41084 | 15661 ft | 361 kts | 90° |
| 2026-05-04 10:40 | 53.44246 | -5.36868 | 16232 ft | 363 kts | 91° |
| 2026-05-04 10:40 | 53.44142 | -5.32619 | 16805 ft | 366 kts | 90° |
| 2026-05-04 10:41 | 53.44038 | -5.28353 | 17405 ft | 367 kts | 90° |
| 2026-05-04 10:41 | 53.43930 | -5.24055 | 17984 ft | 370 kts | 91° |
| 2026-05-04 10:41 | 53.43818 | -5.19721 | 18501 ft | 374 kts | 91° |
| 2026-05-04 10:41 | 53.43706 | -5.15361 | 19002 ft | 376 kts | 91° |
| 2026-05-04 10:42 | 53.43583 | -5.10970 | 19490 ft | 378 kts | 91° |
| 2026-05-04 10:42 | 53.43446 | -5.06540 | 19986 ft | 381 kts | 91° |
| 2026-05-04 10:42 | 53.43302 | -5.02149 | 20497 ft | 383 kts | 91° |
| 2026-05-04 10:42 | 53.43153 | -4.97675 | 21008 ft | 385 kts | 91° |
| 2026-05-04 10:43 | 53.43001 | -4.93177 | 21511 ft | 387 kts | 91° |
| 2026-05-04 10:44 | 53.41913 | -4.61138 | 24615 ft | 399 kts | 91° |
| 2026-05-04 10:45 | 53.41748 | -4.56487 | 24979 ft | 400 kts | 91° |
| 2026-05-04 10:45 | 53.41581 | -4.51820 | 25334 ft | 401 kts | 91° |
| 2026-05-04 10:45 | 53.41414 | -4.47144 | 25689 ft | 402 kts | 91° |
| 2026-05-04 10:45 | 53.41246 | -4.42451 | 26039 ft | 404 kts | 90° |
| 2026-05-04 10:46 | 53.41076 | -4.37738 | 26380 ft | 405 kts | 90° |
| 2026-05-04 10:46 | 53.40904 | -4.33023 | 26716 ft | 406 kts | 90° |
| 2026-05-04 10:46 | 53.40728 | -4.28277 | 27053 ft | 408 kts | 90° |
| 2026-05-04 10:46 | 53.40552 | -4.23579 | 27386 ft | 409 kts | 90° |
| 2026-05-04 10:47 | 53.40368 | -4.18746 | 27700 ft | 410 kts | 90° |
| 2026-05-04 10:47 | 53.40185 | -4.14030 | 28006 ft | 412 kts | 90° |
| 2026-05-04 10:47 | 53.40000 | -4.09311 | 28313 ft | 413 kts | 90° |
| 2026-05-04 10:47 | 53.39810 | -4.04499 | 28612 ft | 414 kts | 90° |
| 2026-05-04 10:49 | 53.38480 | -3.72038 | 30325 ft | 422 kts | 90° |
| 2026-05-04 10:49 | 53.38211 | -3.67131 | 30516 ft | 426 kts | 95° |
| 2026-05-04 10:50 | 53.37521 | -3.62286 | 30763 ft | 430 kts | 104° |
| 2026-05-04 10:51 | 53.26475 | -3.32581 | 32626 ft | 438 kts | 127° |
| 2026-05-04 10:52 | 53.24464 | -3.28782 | 32891 ft | 437 kts | 127° |
| 2026-05-04 10:52 | 53.22449 | -3.24973 | 33053 ft | 436 kts | 127° |
| 2026-05-04 10:52 | 53.20453 | -3.21206 | 33104 ft | 430 kts | 127° |
| 2026-05-04 10:54 | 53.04623 | -2.91535 | 33082 ft | 428 kts | 128° |
| 2026-05-04 10:56 | 52.88689 | -2.62051 | 33051 ft | 428 kts | 129° |
| 2026-05-04 10:57 | 52.84723 | -2.54760 | 33046 ft | 429 kts | 129° |
| 2026-05-04 10:57 | 52.80726 | -2.47436 | 33041 ft | 429 kts | 130° |
| 2026-05-04 10:58 | 52.76744 | -2.40163 | 33042 ft | 429 kts | 130° |
| 2026-05-04 10:58 | 52.72716 | -2.32837 | 33055 ft | 430 kts | 131° |
| 2026-05-04 10:59 | 52.68670 | -2.25502 | 33189 ft | 435 kts | 131° |
| 2026-05-04 10:59 | 52.66617 | -2.21786 | 33335 ft | 438 kts | 131° |
| 2026-05-04 10:59 | 52.64590 | -2.18118 | 33532 ft | 439 kts | 131° |
| 2026-05-04 10:59 | 52.62533 | -2.14397 | 33770 ft | 439 kts | 131° |
| 2026-05-04 11:00 | 52.60478 | -2.10687 | 34008 ft | 439 kts | 131° |
| 2026-05-04 11:01 | 52.46010 | -1.84735 | 35059 ft | 440 kts | 133° |
| 2026-05-04 11:02 | 52.43932 | -1.81033 | 35057 ft | 440 kts | 133° |
| 2026-05-04 11:05 | 52.12386 | -1.26764 | 35049 ft | 440 kts | 135° |
| 2026-05-04 11:06 | 52.08119 | -1.19587 | 35047 ft | 440 kts | 135° |
| 2026-05-04 11:06 | 52.03857 | -1.12431 | 35039 ft | 440 kts | 135° |
| 2026-05-04 11:10 | 51.72197 | -0.65890 | 35006 ft | 439 kts | 140° |
| 2026-05-04 11:12 | 51.59633 | -0.38814 | 35015 ft | 446 kts | 110° |
| 2026-05-04 11:12 | 51.58655 | -0.34072 | 35015 ft | 446 kts | 110° |
| 2026-05-04 11:12 | 51.56680 | -0.24611 | 35014 ft | 446 kts | 111° |
| 2026-05-04 11:13 | 51.54690 | -0.15142 | 35013 ft | 446 kts | 111° |
| 2026-05-04 11:13 | 51.52708 | -0.05684 | 35039 ft | 447 kts | 111° |
| 2026-05-04 11:16 | 51.42715 | 0.41298 | 35021 ft | 444 kts | 112° |
| 2026-05-04 11:16 | 51.40694 | 0.50650 | 35018 ft | 444 kts | 112° |
| 2026-05-04 11:17 | 51.38680 | 0.59948 | 35028 ft | 444 kts | 112° |
| 2026-05-04 11:19 | 51.30515 | 0.97209 | 35018 ft | 442 kts | 114° |
| 2026-05-04 11:19 | 51.28516 | 1.06534 | 35022 ft | 444 kts | 109° |
| 2026-05-04 11:20 | 51.27237 | 1.14489 | 35031 ft | 444 kts | 109° |
| 2026-05-04 11:20 | 51.25442 | 1.25581 | 35023 ft | 444 kts | 109° |
| 2026-05-04 11:22 | 51.19439 | 1.62095 | 35012 ft | 444 kts | 109° |
| 2026-05-04 11:23 | 51.17853 | 1.71615 | 35013 ft | 444 kts | 109° |
| 2026-05-04 11:25 | 51.12797 | 2.05116 | 35006 ft | 451 kts | 99° |
| 2026-05-04 11:25 | 51.12284 | 2.15039 | 35009 ft | 452 kts | 99° |
| 2026-05-04 11:27 | 51.09684 | 2.59856 | 34997 ft | 449 kts | 107° |
| 2026-05-04 11:28 | 51.07626 | 2.69117 | 35000 ft | 436 kts | 124° |
| 2026-05-04 11:28 | 51.04314 | 2.77079 | 35003 ft | 432 kts | 130° |
| 2026-05-04 11:29 | 51.00920 | 2.84899 | 34991 ft | 432 kts | 130° |
| 2026-05-04 11:29 | 50.97504 | 2.92765 | 34990 ft | 433 kts | 130° |
| 2026-05-04 11:33 | 50.73340 | 3.47664 | 34982 ft | 435 kts | 131° |
| 2026-05-04 11:33 | 50.69858 | 3.55471 | 34987 ft | 435 kts | 131° |
| 2026-05-04 11:34 | 50.66361 | 3.63280 | 34989 ft | 435 kts | 131° |
| 2026-05-04 11:34 | 50.62860 | 3.71085 | 34994 ft | 436 kts | 131° |
| 2026-05-04 11:35 | 50.59379 | 3.78827 | 34981 ft | 436 kts | 131° |
| 2026-05-04 11:35 | 50.55893 | 3.86641 | 34983 ft | 437 kts | 130° |
| 2026-05-04 11:36 | 50.52579 | 3.94674 | 34993 ft | 438 kts | 128° |
| 2026-05-04 11:36 | 50.49290 | 4.02816 | 35000 ft | 438 kts | 128° |
| 2026-05-04 11:37 | 50.45998 | 4.10817 | 35018 ft | 438 kts | 129° |
| 2026-05-04 11:37 | 50.42651 | 4.18819 | 35001 ft | 437 kts | 129° |
| 2026-05-04 11:38 | 50.39310 | 4.26788 | 34992 ft | 437 kts | 129° |
| 2026-05-04 11:38 | 50.35988 | 4.34700 | 34993 ft | 437 kts | 129° |
| 2026-05-04 11:39 | 50.32631 | 4.42667 | 34998 ft | 437 kts | 129° |
| 2026-05-04 11:41 | 50.20876 | 4.70410 | 34995 ft | 437 kts | 129° |
| 2026-05-04 11:41 | 50.17526 | 4.78255 | 34994 ft | 437 kts | 130° |
| 2026-05-04 11:42 | 50.14695 | 4.84866 | 34995 ft | 437 kts | 130° |
| 2026-05-04 11:42 | 50.11075 | 4.93319 | 34996 ft | 437 kts | 130° |
| 2026-05-04 11:43 | 50.07681 | 5.01214 | 34997 ft | 437 kts | 130° |
| 2026-05-04 11:43 | 50.04292 | 5.09070 | 34985 ft | 437 kts | 130° |
| 2026-05-04 11:44 | 50.00899 | 5.16902 | 34992 ft | 437 kts | 130° |
| 2026-05-04 11:44 | 49.97499 | 5.24736 | 34993 ft | 436 kts | 130° |
| 2026-05-04 11:45 | 49.94099 | 5.32554 | 34994 ft | 436 kts | 130° |
| 2026-05-04 11:45 | 49.90714 | 5.40302 | 34995 ft | 436 kts | 130° |
| 2026-05-04 11:46 | 49.87303 | 5.48096 | 34976 ft | 436 kts | 130° |
| 2026-05-04 11:46 | 49.83887 | 5.55882 | 34985 ft | 437 kts | 130° |
| 2026-05-04 11:47 | 49.80457 | 5.63656 | 34989 ft | 437 kts | 130° |
| 2026-05-04 11:47 | 49.77020 | 5.71430 | 35007 ft | 437 kts | 130° |
| 2026-05-04 11:48 | 49.73575 | 5.79193 | 35012 ft | 437 kts | 130° |
| 2026-05-04 11:48 | 49.70136 | 5.86933 | 34993 ft | 437 kts | 130° |
| 2026-05-04 11:49 | 49.66700 | 5.94638 | 35004 ft | 438 kts | 130° |
| 2026-05-04 11:49 | 49.63236 | 6.02377 | 35012 ft | 438 kts | 130° |
| 2026-05-04 11:50 | 49.59760 | 6.10141 | 35016 ft | 438 kts | 130° |
| 2026-05-04 11:50 | 49.56312 | 6.17834 | 35014 ft | 438 kts | 130° |
| 2026-05-04 11:51 | 49.52775 | 6.25684 | 35019 ft | 438 kts | 130° |
| 2026-05-04 11:51 | 49.49313 | 6.33299 | 34997 ft | 437 kts | 133° |
| 2026-05-04 11:52 | 49.45019 | 6.39682 | 34996 ft | 424 kts | 151° |
| 2026-05-04 11:52 | 49.39821 | 6.43816 | 35001 ft | 416 kts | 161° |
| 2026-05-04 11:53 | 49.34515 | 6.47410 | 35000 ft | 417 kts | 161° |
| 2026-05-04 11:53 | 49.29212 | 6.51007 | 34995 ft | 417 kts | 161° |
| 2026-05-04 11:55 | 49.08885 | 6.64749 | 34988 ft | 417 kts | 161° |
| 2026-05-04 11:56 | 49.03598 | 6.68294 | 35000 ft | 417 kts | 161° |
| 2026-05-04 11:56 | 48.98267 | 6.71847 | 35006 ft | 417 kts | 161° |
| 2026-05-04 11:57 | 48.92889 | 6.75173 | 35011 ft | 416 kts | 163° |
| 2026-05-04 11:57 | 48.87473 | 6.78308 | 35013 ft | 416 kts | 163° |
| 2026-05-04 11:58 | 48.82089 | 6.81423 | 35019 ft | 417 kts | 163° |
| 2026-05-04 11:58 | 48.76670 | 6.84608 | 35022 ft | 416 kts | 163° |
| 2026-05-04 11:59 | 48.71259 | 6.87806 | 35027 ft | 417 kts | 163° |
| 2026-05-04 11:59 | 48.65856 | 6.90998 | 35027 ft | 416 kts | 163° |
| 2026-05-04 12:00 | 48.60453 | 6.94166 | 35031 ft | 416 kts | 163° |
| 2026-05-04 12:00 | 48.55044 | 6.97326 | 35010 ft | 417 kts | 163° |
| 2026-05-04 12:01 | 48.49651 | 7.00474 | 35007 ft | 418 kts | 163° |
| 2026-05-04 12:02 | 48.30737 | 7.11476 | 32629 ft | 403 kts | 163° |
| 2026-05-04 12:03 | 48.28140 | 7.12982 | 31768 ft | 397 kts | 164° |
| 2026-05-04 12:03 | 48.25582 | 7.14458 | 30940 ft | 390 kts | 164° |
| 2026-05-04 12:03 | 48.23066 | 7.15907 | 30112 ft | 384 kts | 164° |
| 2026-05-04 12:03 | 48.20595 | 7.17324 | 29175 ft | 379 kts | 163° |
| 2026-05-04 12:04 | 48.18149 | 7.18728 | 28271 ft | 373 kts | 163° |
| 2026-05-04 12:04 | 48.15736 | 7.20111 | 27412 ft | 369 kts | 163° |
| 2026-05-04 12:04 | 48.13355 | 7.21476 | 26554 ft | 365 kts | 163° |
| 2026-05-04 12:04 | 48.10994 | 7.22830 | 25713 ft | 362 kts | 163° |
| 2026-05-04 12:05 | 48.08656 | 7.24170 | 24901 ft | 359 kts | 163° |
| 2026-05-04 12:05 | 48.06332 | 7.25499 | 24095 ft | 356 kts | 162° |
| 2026-05-04 12:05 | 48.04022 | 7.26821 | 23261 ft | 353 kts | 162° |
| 2026-05-04 12:05 | 48.01736 | 7.28129 | 22389 ft | 350 kts | 162° |
| 2026-05-04 12:06 | 47.99496 | 7.29412 | 21600 ft | 346 kts | 162° |
| 2026-05-04 12:06 | 47.97255 | 7.30693 | 20867 ft | 345 kts | 162° |
| 2026-05-04 12:06 | 47.95015 | 7.31969 | 20584 ft | 344 kts | 162° |
| 2026-05-04 12:06 | 47.92775 | 7.33244 | 20336 ft | 343 kts | 162° |
| 2026-05-04 12:07 | 47.90545 | 7.34509 | 20086 ft | 342 kts | 162° |
| 2026-05-04 12:07 | 47.88329 | 7.35765 | 19849 ft | 341 kts | 162° |
| 2026-05-04 12:07 | 47.86118 | 7.37017 | 19601 ft | 339 kts | 162° |
| 2026-05-04 12:07 | 47.83913 | 7.38266 | 19358 ft | 338 kts | 162° |
| 2026-05-04 12:08 | 47.81715 | 7.39514 | 19111 ft | 337 kts | 162° |
| 2026-05-04 12:08 | 47.79529 | 7.40755 | 18884 ft | 335 kts | 162° |
| 2026-05-04 12:08 | 47.77348 | 7.41995 | 18655 ft | 334 kts | 162° |
| 2026-05-04 12:08 | 47.75181 | 7.43224 | 18417 ft | 334 kts | 162° |
| 2026-05-04 12:09 | 47.73014 | 7.44447 | 18169 ft | 333 kts | 162° |
| 2026-05-04 12:09 | 47.70847 | 7.45671 | 17900 ft | 331 kts | 162° |
| 2026-05-04 12:09 | 47.68728 | 7.46869 | 17637 ft | 330 kts | 162° |
| 2026-05-04 12:09 | 47.66590 | 7.48099 | 17325 ft | 327 kts | 159° |
| 2026-05-04 12:10 | 47.64647 | 7.49862 | 16909 ft | 331 kts | 144° |
| 2026-05-04 12:10 | 47.63067 | 7.52369 | 16465 ft | 336 kts | 128° |
| 2026-05-04 12:10 | 47.61958 | 7.55583 | 16016 ft | 342 kts | 112° |
| 2026-05-04 12:10 | 47.61232 | 7.58812 | 15587 ft | 342 kts | 112° |
| 2026-05-04 12:11 | 47.60464 | 7.62143 | 15151 ft | 342 kts | 112° |
| 2026-05-04 12:11 | 47.59676 | 7.65484 | 14704 ft | 343 kts | 112° |
| 2026-05-04 12:11 | 47.58878 | 7.68824 | 14261 ft | 345 kts | 112° |
| 2026-05-04 12:11 | 47.58064 | 7.72228 | 13791 ft | 346 kts | 112° |
| 2026-05-04 12:12 | 47.57262 | 7.75598 | 13303 ft | 347 kts | 112° |
| 2026-05-04 12:12 | 47.56468 | 7.78959 | 12839 ft | 345 kts | 112° |
| 2026-05-04 12:12 | 47.55676 | 7.82319 | 12368 ft | 344 kts | 112° |
| 2026-05-04 12:12 | 47.54889 | 7.85659 | 11906 ft | 343 kts | 112° |
| 2026-05-04 12:13 | 47.54102 | 7.88990 | 11432 ft | 342 kts | 112° |
| 2026-05-04 12:14 | 47.53546 | 8.10487 | 9509 ft | 274 kts | 56° |
| 2026-05-04 12:15 | 47.54623 | 8.12774 | 9068 ft | 267 kts | 57° |
| 2026-05-04 12:15 | 47.55673 | 8.15034 | 8509 ft | 266 kts | 57° |
| 2026-05-04 12:15 | 47.56731 | 8.17328 | 7786 ft | 271 kts | 57° |
| 2026-05-04 12:15 | 47.57800 | 8.19641 | 7123 ft | 272 kts | 57° |
| 2026-05-04 12:16 | 47.58842 | 8.21885 | 6875 ft | 257 kts | 56° |
| 2026-05-04 12:16 | 47.59754 | 8.24057 | 6728 ft | 244 kts | 67° |
| 2026-05-04 12:16 | 47.60465 | 8.26337 | 6344 ft | 240 kts | 67° |
| 2026-05-04 12:16 | 47.61140 | 8.28544 | 6002 ft | 231 kts | 68° |
| 2026-05-04 12:17 | 47.61787 | 8.30689 | 5657 ft | 224 kts | 70° |
| 2026-05-04 12:17 | 47.62048 | 8.32879 | 5354 ft | 210 kts | 96° |
| 2026-05-04 12:17 | 47.61659 | 8.34847 | 5114 ft | 192 kts | 119° |
| 2026-05-04 12:17 | 47.60839 | 8.36317 | 4804 ft | 183 kts | 136° |
| 2026-05-04 12:18 | 47.59920 | 8.37557 | 4539 ft | 170 kts | 135° |
| 2026-05-04 12:18 | 47.59087 | 8.38691 | 4325 ft | 157 kts | 136° |
| 2026-05-04 12:18 | 47.58312 | 8.39751 | 4151 ft | 151 kts | 135° |
| 2026-05-04 12:18 | 47.57544 | 8.40804 | 4087 ft | 151 kts | 135° |
| 2026-05-04 12:19 | 47.56777 | 8.41859 | 4038 ft | 150 kts | 136° |
| 2026-05-04 12:19 | 47.56008 | 8.42914 | 4021 ft | 151 kts | 135° |
| 2026-05-04 12:19 | 47.55283 | 8.43909 | 4017 ft | 150 kts | 134° |
| 2026-05-04 12:19 | 47.54513 | 8.44965 | 4004 ft | 151 kts | 135° |
| 2026-05-04 12:20 | 47.53746 | 8.46018 | 4004 ft | 151 kts | 135° |
| 2026-05-04 12:20 | 47.52973 | 8.47080 | 3918 ft | 154 kts | 135° |
| 2026-05-04 12:20 | 47.52172 | 8.48187 | 3425 ft | 161 kts | 136° |
| 2026-05-04 12:20 | 47.51336 | 8.49353 | 2822 ft | 171 kts | 136° |
| 2026-05-04 12:21 | 47.50465 | 8.50580 | 2311 ft | 171 kts | 136° |
| 2026-05-04 12:21 | 47.49593 | 8.51755 | 1951 ft | 163 kts | 137° |
| 2026-05-04 12:21 | 47.48777 | 8.52845 | 1652 ft | 155 kts | 135° |
| 2026-05-04 12:21 | 47.47965 | 8.53916 | 1741 ft | 166 kts | 136° |
| 2026-05-04 12:22 | 47.47085 | 8.55077 | 2590 ft | 166 kts | 136° |
| 2026-05-04 12:22 | 47.46220 | 8.56262 | 3275 ft | 186 kts | 135° |
| 2026-05-04 12:22 | 47.45240 | 8.57616 | 3691 ft | 199 kts | 135° |
| 2026-05-04 12:22 | 47.44162 | 8.59107 | 3969 ft | 225 kts | 135° |
| 2026-05-04 12:23 | 47.42979 | 8.60737 | 4126 ft | 237 kts | 135° |
| 2026-05-04 12:23 | 47.41792 | 8.62364 | 4040 ft | 227 kts | 135° |
| 2026-05-04 12:23 | 47.40928 | 8.64201 | 4020 ft | 218 kts | 102° |
| 2026-05-04 12:23 | 47.41082 | 8.66378 | 4002 ft | 217 kts | 59° |
| 2026-05-04 12:24 | 47.42242 | 8.67747 | 4401 ft | 216 kts | 14° |
| 2026-05-04 12:24 | 47.43758 | 8.67755 | 4642 ft | 235 kts | 357° |
| 2026-05-04 12:24 | 47.45320 | 8.67970 | 4612 ft | 221 kts | 25° |
| 2026-05-04 12:24 | 47.46691 | 8.69012 | 4624 ft | 222 kts | 33° |
| 2026-05-04 12:25 | 47.47995 | 8.70245 | 4625 ft | 223 kts | 34° |
| 2026-05-04 12:25 | 47.48847 | 8.70975 | 4631 ft | 223 kts | 26° |
| 2026-05-04 12:25 | 47.50761 | 8.72106 | 4633 ft | 224 kts | 20° |
| 2026-05-04 12:25 | 47.52248 | 8.72818 | 4630 ft | 224 kts | 18° |
| 2026-05-04 12:26 | 47.53664 | 8.73443 | 4626 ft | 225 kts | 18° |
| 2026-05-04 12:26 | 47.55124 | 8.74264 | 4622 ft | 222 kts | 32° |
| 2026-05-04 12:26 | 47.56448 | 8.75431 | 4627 ft | 224 kts | 22° |
| 2026-05-04 12:26 | 47.57968 | 8.75556 | 4616 ft | 224 kts | 340° |
| 2026-05-04 12:27 | 47.59176 | 8.74138 | 4570 ft | 227 kts | 299° |
| 2026-05-04 12:27 | 47.59500 | 8.71887 | 4559 ft | 231 kts | 274° |
| 2026-05-04 12:27 | 47.59535 | 8.70284 | 4433 ft | 231 kts | 265° |
| 2026-05-04 12:27 | 47.59231 | 8.67959 | 4298 ft | 226 kts | 263° |
| 2026-05-04 12:28 | 47.59495 | 8.65761 | 4149 ft | 217 kts | 303° |
| 2026-05-04 12:28 | 47.60372 | 8.63948 | 4056 ft | 217 kts | 307° |
| 2026-05-04 12:28 | 47.61256 | 8.62120 | 3996 ft | 217 kts | 306° |
| 2026-05-04 12:28 | 47.62111 | 8.60269 | 4007 ft | 217 kts | 304° |
| 2026-05-04 12:29 | 47.62950 | 8.58369 | 3998 ft | 217 kts | 303° |
| 2026-05-04 12:29 | 47.63750 | 8.56494 | 4008 ft | 218 kts | 302° |
| 2026-05-04 12:29 | 47.64542 | 8.54586 | 4008 ft | 217 kts | 302° |
| 2026-05-04 12:29 | 47.65325 | 8.52673 | 3999 ft | 217 kts | 302° |
| 2026-05-04 12:30 | 47.66109 | 8.50753 | 4001 ft | 217 kts | 302° |
| 2026-05-04 12:30 | 47.66889 | 8.48833 | 4008 ft | 218 kts | 302° |
| 2026-05-04 12:30 | 47.67663 | 8.46904 | 3999 ft | 218 kts | 298° |
| 2026-05-04 12:30 | 47.68089 | 8.44765 | 4013 ft | 218 kts | 273° |
| 2026-05-04 12:31 | 47.67876 | 8.42552 | 3996 ft | 218 kts | 248° |
| 2026-05-04 12:31 | 47.67066 | 8.40655 | 4016 ft | 220 kts | 226° |
| 2026-05-04 12:31 | 47.66027 | 8.39012 | 3984 ft | 214 kts | 226° |
| 2026-05-04 12:31 | 47.65020 | 8.37414 | 3998 ft | 211 kts | 226° |
| 2026-05-04 12:32 | 47.63972 | 8.35902 | 3990 ft | 209 kts | 210° |
| 2026-05-04 12:32 | 47.61259 | 8.35806 | 4042 ft | 194 kts | 146° |
| 2026-05-04 12:32 | 47.60289 | 8.37035 | 4005 ft | 173 kts | 135° |
| 2026-05-04 12:33 | 47.59448 | 8.38187 | 3991 ft | 161 kts | 136° |
| 2026-05-04 12:33 | 47.58632 | 8.39302 | 3996 ft | 159 kts | 135° |
| 2026-05-04 12:33 | 47.57825 | 8.40407 | 3995 ft | 159 kts | 136° |
| 2026-05-04 12:33 | 47.57010 | 8.41527 | 3767 ft | 159 kts | 135° |
| 2026-05-04 12:34 | 47.56202 | 8.42639 | 3547 ft | 158 kts | 136° |
| 2026-05-04 12:34 | 47.55398 | 8.43744 | 3350 ft | 158 kts | 136° |
| 2026-05-04 12:34 | 47.54586 | 8.44857 | 3148 ft | 158 kts | 136° |
| 2026-05-04 12:34 | 47.53776 | 8.45965 | 2934 ft | 159 kts | 136° |
| 2026-05-04 12:35 | 47.52963 | 8.47077 | 2724 ft | 159 kts | 136° |
| 2026-05-04 12:35 | 47.52132 | 8.48210 | 2482 ft | 158 kts | 137° |
| 2026-05-04 12:35 | 47.51344 | 8.49281 | 2276 ft | 157 kts | 136° |
| 2026-05-04 12:35 | 47.50548 | 8.50380 | 2059 ft | 156 kts | 134° |
| 2026-05-04 12:36 | 47.49762 | 8.51478 | 1851 ft | 155 kts | 135° |
| 2026-05-04 12:36 | 47.48952 | 8.52590 | 1633 ft | 155 kts | 135° |
| 2026-05-04 12:36 | 47.48190 | 8.53637 | 1462 ft | 154 kts | 136° |
| 2026-05-04 12:36 | 47.47424 | 8.54682 | 1401 ft | 135 kts | 135° |
| 2026-05-04 12:37 | 47.46851 | 8.55466 | 1401 ft | 88 kts | 139° |
| 2026-05-04 12:37 | 47.46519 | 8.55902 | 1398 ft | 37 kts | 145° |
| 2026-05-04 12:37 | 47.46358 | 8.55957 | 1397 ft | 20 kts | 165° |
| 2026-05-04 12:37 | 47.46237 | 8.56004 | 1399 ft | 16 kts | 155° |
| 2026-05-04 12:38 | 47.46152 | 8.56071 | 1407 ft | 11 kts | 143° |
| 2026-05-04 12:38 | 47.46100 | 8.56137 | 1402 ft | 12 kts | 132° |
| 2026-05-04 12:38 | 47.46026 | 8.56246 | 1401 ft | 16 kts | 138° |
| 2026-05-04 12:38 | 47.45931 | 8.56314 | 1403 ft | 15 kts | 185° |
| 2026-05-04 12:39 | 47.45831 | 8.56298 | 1403 ft | 16 kts | 186° |
| 2026-05-04 12:39 | 47.45716 | 8.56280 | 1398 ft | 18 kts | 186° |
| 2026-05-04 12:39 | 47.45614 | 8.56229 | 1397 ft | 14 kts | 253° |
| 2026-05-04 12:39 | 47.45621 | 8.56099 | 1400 ft | 12 kts | 276° |
| 2026-05-04 12:40 | 47.45629 | 8.55977 | 1397 ft | 12 kts | 276° |
| 2026-05-04 12:40 | 47.45638 | 8.55859 | 1397 ft | 11 kts | 276° |
| 2026-05-04 12:40 | 47.45645 | 8.55760 | 1404 ft | 9 kts | 276° |
| 2026-05-04 12:40 | 47.45654 | 8.55628 | 1397 ft | 18 kts | 276° |
| 2026-05-04 12:41 | 47.45666 | 8.55460 | 1397 ft | 15 kts | 276° |
| 2026-05-04 12:41 | 47.45645 | 8.55352 | 1397 ft | 10 kts | 180° |
| 2026-05-04 12:41 | 47.45576 | 8.55368 | 1405 ft | 11 kts | 155° |
| 2026-05-04 12:41 | 47.45516 | 8.55416 | 1401 ft | 9 kts | 153° |
| 2026-05-04 12:42 | 47.45427 | 8.55480 | 1403 ft | 18 kts | 155° |
| 2026-05-04 12:42 | 47.45314 | 8.55556 | 1397 ft | 19 kts | 157° |
| 2026-05-04 12:42 | 47.45266 | 8.55713 | 1397 ft | 18 kts | 96° |
| 2026-05-04 12:42 | 47.45251 | 8.55907 | 1397 ft | 20 kts | 97° |
| 2026-05-04 12:43 | 47.45206 | 8.55998 | 1402 ft | 9 kts | 191° |
| 2026-05-04 12:43 | 47.45160 | 8.55991 | 1397 ft | 0 kts | 184° |
| 2026-05-04 12:43 | 47.45157 | 8.55991 | 1397 ft | 1 kts | 186° |
| 2026-05-04 12:43 | 47.45156 | 8.55990 | 1397 ft | 0 kts | 186° |